Time;durP1;ratioP1;P1;durP2;ratioP2;P2;SDS_P1;SDS_P2;PMS_P1;PMS_P2;Temp;Humidity;BMP_temperature;BMP_pressure;BME280_temperature;BME280_humidity;BME280_pressure;Samples;Min_cycle;Max_cycle;Signal;HPM_P1;HPM_P2
2022/04/23 00:00:21;;;;;;;52.63;9.77;;;;;;;;;;4957350;28;20195;-68
2022/04/23 00:02:47;;;;;;;59.47;10.80;;;;;;;;;;4959041;28;20838;-68
2022/04/23 00:05:13;;;;;;;52.67;9.80;;;;;;;;;;4955836;28;20233;-68
2022/04/23 00:07:39;;;;;;;75.90;13.80;;;;;;;;;;4957051;28;20767;-68
2022/04/23 00:10:05;;;;;;;79.77;14.30;;;;;;;;;;4960758;28;20210;-68
2022/04/23 00:12:31;;;;;;;68.83;12.80;;;;;;;;;;4958740;28;20249;-69
2022/04/23 00:14:57;;;;;;;100.53;18.73;;;;;;;;;;4960635;28;20645;-68
2022/04/23 00:17:23;;;;;;;43.10;8.23;;;;;;;;;;4960762;28;20242;-68
2022/04/23 00:19:49;;;;;;;38.63;7.33;;;;;;;;;;4941482;28;20245;-68
2022/04/23 00:22:16;;;;;;;62.63;11.47;;;;;;;;;;4958196;28;20218;-68
2022/04/23 00:24:43;;;;;;;52.40;9.57;;;;;;;;;;4952272;28;20265;-68
2022/04/23 00:27:08;;;;;;;68.37;12.13;;;;;;;;;;4958616;28;20270;-68
2022/04/23 00:29:35;;;;;;;48.93;8.87;;;;;;;;;;4957027;28;20340;-68
2022/04/23 00:32:02;;;;;;;113.53;19.90;;;;;;;;;;4961950;28;20211;-68
2022/04/23 00:34:28;;;;;;;146.83;27.57;;;;;;;;;;4953780;28;20249;-68
2022/04/23 00:36:54;;;;;;;59.23;10.33;;;;;;;;;;4937030;28;20214;-68
2022/04/23 00:39:20;;;;;;;45.47;8.17;;;;;;;;;;4956477;28;20182;-68
2022/04/23 00:41:46;;;;;;;70.80;12.43;;;;;;;;;;4953929;28;20229;-68
2022/04/23 00:44:13;;;;;;;80.77;13.70;;;;;;;;;;4954072;28;20225;-68
2022/04/23 00:46:39;;;;;;;36.37;6.77;;;;;;;;;;4956286;28;20297;-68
2022/04/23 00:49:08;;;;;;;101.13;18.33;;;;;;;;;;4953751;28;20245;-68
2022/04/23 00:51:35;;;;;;;50.43;9.27;;;;;;;;;;4955406;28;20623;-68
2022/04/23 00:54:05;;;;;;;123.77;20.53;;;;;;;;;;4952190;28;20239;-68
2022/04/23 00:56:31;;;;;;;60.20;10.67;;;;;;;;;;4950655;28;20223;-68
2022/04/23 00:58:57;;;;;;;102.87;18.70;;;;;;;;;;4954657;28;20285;-68
2022/04/23 01:01:24;;;;;;;82.30;13.97;;;;;;;;;;4956001;28;20599;-68
2022/04/23 01:03:50;;;;;;;86.33;14.60;;;;;;;;;;4934515;28;20647;-68
2022/04/23 01:06:17;;;;;;;49.83;9.03;;;;;;;;;;4957467;28;20686;-68
2022/04/23 01:08:42;;;;;;;33.70;6.23;;;;;;;;;;4960471;28;20218;-68
2022/04/23 01:11:09;;;;;;;76.80;13.57;;;;;;;;;;4956188;28;20231;-68
2022/04/23 01:13:35;;;;;;;64.87;11.33;;;;;;;;;;4959955;28;20217;-68
2022/04/23 01:16:05;;;;;;;106.23;18.20;;;;;;;;;;4948384;28;20296;-68
2022/04/23 01:18:31;;;;;;;55.90;10.27;;;;;;;;;;4953510;28;20182;-67
2022/04/23 01:20:58;;;;;;;135.50;26.27;;;;;;;;;;4932986;28;20207;-68
2022/04/23 01:23:24;;;;;;;46.70;12.07;;;;;;;;;;4952420;28;20220;-68
2022/04/23 01:25:52;;;;;;;78.27;18.77;;;;;;;;;;4959467;28;20300;-68
2022/04/23 01:28:19;;;;;;;63.33;10.77;;;;;;;;;;4955964;28;20692;-69
2022/04/23 01:30:47;;;;;;;101.43;15.90;;;;;;;;;;4947795;28;20687;-68
2022/04/23 01:33:13;;;;;;;64.13;10.23;;;;;;;;;;4951834;28;20963;-68
2022/04/23 01:35:39;;;;;;;99.20;15.33;;;;;;;;;;4950355;28;20218;-68
2022/04/23 01:38:05;;;;;;;132.83;21.73;;;;;;;;;;4959195;28;20214;-68
2022/04/23 01:40:31;;;;;;;83.53;13.33;;;;;;;;;;4953838;28;20242;-68
2022/04/23 01:42:57;;;;;;;67.13;11.13;;;;;;;;;;4954418;28;20221;-68
2022/04/23 01:45:23;;;;;;;93.47;14.43;;;;;;;;;;4958111;28;20217;-68
2022/04/23 01:47:49;;;;;;;77.23;12.43;;;;;;;;;;4961419;28;20329;-68
2022/04/23 01:50:14;;;;;;;67.20;10.93;;;;;;;;;;4953446;28;20261;-68
2022/04/23 01:52:40;;;;;;;74.03;11.73;;;;;;;;;;4953538;28;20217;-68
2022/04/23 01:55:07;;;;;;;94.60;16.27;;;;;;;;;;4957681;28;20213;-68
2022/04/23 01:57:33;;;;;;;38.60;7.10;;;;;;;;;;4962279;28;20723;-68
2022/04/23 01:59:58;;;;;;;102.67;15.60;;;;;;;;;;4955972;28;20199;-68
2022/04/23 02:02:24;;;;;;;97.10;14.67;;;;;;;;;;4952909;28;20580;-68
2022/04/23 02:04:50;;;;;;;88.90;13.30;;;;;;;;;;4948884;28;20226;-68
2022/04/23 02:07:16;;;;;;;38.47;6.23;;;;;;;;;;4959316;28;20963;-68
2022/04/23 02:09:42;;;;;;;84.87;13.60;;;;;;;;;;4958183;28;20198;-68
2022/04/23 02:12:08;;;;;;;120.50;19.10;;;;;;;;;;4959485;28;20194;-68
2022/04/23 02:14:35;;;;;;;80.10;12.33;;;;;;;;;;4958010;28;20214;-68
2022/04/23 02:17:03;;;;;;;85.70;13.10;;;;;;;;;;4952050;28;20220;-68
2022/04/23 02:19:29;;;;;;;31.10;5.30;;;;;;;;;;4960549;28;20339;-68
2022/04/23 02:21:55;;;;;;;90.97;13.63;;;;;;;;;;4957757;28;20313;-68
2022/04/23 02:24:21;;;;;;;35.20;5.97;;;;;;;;;;4961514;28;20970;-68
2022/04/23 02:26:47;;;;;;;59.90;9.47;;;;;;;;;;4960519;28;20218;-68
2022/04/23 02:29:13;;;;;;;65.23;10.37;;;;;;;;;;4951665;28;20245;-68
2022/04/23 02:31:39;;;;;;;100.07;15.07;;;;;;;;;;4952057;28;20665;-68
2022/04/23 02:34:05;;;;;;;105.23;17.00;;;;;;;;;;4951315;28;20289;-68
2022/04/23 02:36:31;;;;;;;57.53;9.23;;;;;;;;;;4961388;28;20277;-68
2022/04/23 02:38:58;;;;;;;75.13;12.20;;;;;;;;;;4942494;28;20265;-68
2022/04/23 02:41:24;;;;;;;50.73;8.47;;;;;;;;;;4959620;28;20698;-68
2022/04/23 02:43:50;;;;;;;104.57;16.30;;;;;;;;;;4958297;28;20365;-68
2022/04/23 02:46:16;;;;;;;93.90;14.83;;;;;;;;;;4957919;28;20699;-68
2022/04/23 02:48:44;;;;;;;48.67;8.10;;;;;;;;;;4953406;28;20190;-68
2022/04/23 02:51:15;;;;;;;102.10;15.63;;;;;;;;;;4955528;28;20205;-68
2022/04/23 02:53:41;;;;;;;60.90;9.70;;;;;;;;;;4958323;28;20293;-68
2022/04/23 02:56:13;;;;;;;100.03;15.60;;;;;;;;;;4953742;28;20535;-68
2022/04/23 02:58:40;;;;;;;23.67;4.17;;;;;;;;;;4964882;28;20265;-69
2022/04/23 03:01:09;;;;;;;132.67;20.23;;;;;;;;;;4955952;28;20292;-68
2022/04/23 03:03:36;;;;;;;72.83;11.80;;;;;;;;;;4937923;28;20186;-68
2022/04/23 03:06:02;;;;;;;70.00;12.00;;;;;;;;;;4955462;28;20270;-68
2022/04/23 03:08:29;;;;;;;56.17;9.13;;;;;;;;;;4961126;28;20298;-68
2022/04/23 03:10:54;;;;;;;58.93;9.50;;;;;;;;;;4957554;28;20214;-68
2022/04/23 03:13:20;;;;;;;48.60;8.13;;;;;;;;;;4962959;28;20209;-68
2022/04/23 03:15:46;;;;;;;51.87;8.37;;;;;;;;;;4955463;28;20218;-68
2022/04/23 03:18:13;;;;;;;103.73;15.43;;;;;;;;;;4949992;28;21136;-68
2022/04/23 03:20:41;;;;;;;119.87;17.97;;;;;;;;;;4952888;28;20229;-68
2022/04/23 03:23:07;;;;;;;103.07;15.73;;;;;;;;;;4954594;28;20309;-68
2022/04/23 03:25:33;;;;;;;109.37;16.50;;;;;;;;;;4954111;28;20308;-68
2022/04/23 03:28:00;;;;;;;147.73;23.37;;;;;;;;;;4958350;28;20257;-68
2022/04/23 03:30:26;;;;;;;57.27;9.47;;;;;;;;;;4954647;28;20221;-67
2022/04/23 03:32:53;;;;;;;82.17;12.87;;;;;;;;;;4932204;28;20178;-68
2022/04/23 03:35:19;;;;;;;64.87;10.23;;;;;;;;;;4953058;28;20261;-68
2022/04/23 03:37:45;;;;;;;59.33;9.37;;;;;;;;;;4952940;28;20304;-68
2022/04/23 03:40:11;;;;;;;151.90;23.33;;;;;;;;;;4953887;28;20864;-68
2022/04/23 03:42:37;;;;;;;84.70;13.13;;;;;;;;;;4948898;28;20186;-68
2022/04/23 03:45:04;;;;;;;109.50;19.33;;;;;;;;;;4951624;28;20210;-68
2022/04/23 03:47:31;;;;;;;47.17;7.70;;;;;;;;;;4955617;28;20242;-68
2022/04/23 03:49:57;;;;;;;58.43;9.33;;;;;;;;;;4941387;28;21280;-68
2022/04/23 03:52:23;;;;;;;87.27;13.60;;;;;;;;;;4953804;28;20223;-68
2022/04/23 03:54:49;;;;;;;82.77;12.43;;;;;;;;;;4958167;28;20774;-68
2022/04/23 03:57:15;;;;;;;43.93;7.10;;;;;;;;;;4949103;28;20182;-68
2022/04/23 03:59:41;;;;;;;51.57;8.23;;;;;;;;;;4952896;28;20274;-68
2022/04/23 04:02:07;;;;;;;126.93;20.23;;;;;;;;;;4951465;28;20233;-68
2022/04/23 04:04:34;;;;;;;62.43;9.83;;;;;;;;;;4955765;28;20600;-68
2022/04/23 04:07:00;;;;;;;105.93;16.17;;;;;;;;;;4949637;28;20215;-68
2022/04/23 04:09:27;;;;;;;61.97;9.87;;;;;;;;;;4953757;28;20277;-67
2022/04/23 04:12:01;;;;;;;64.47;10.00;;;;;;;;;;4942700;28;20214;-68
2022/04/23 04:14:31;;;;;;;50.60;7.93;;;;;;;;;;4958109;28;20210;-68
2022/04/23 04:17:01;;;;;;;122.87;19.47;;;;;;;;;;4952092;28;20223;-68
2022/04/23 04:19:27;;;;;;;41.00;6.67;;;;;;;;;;4957414;28;20304;-68
2022/04/23 04:21:54;;;;;;;124.13;19.17;;;;;;;;;;4954263;28;20217;-68
2022/04/23 04:24:20;;;;;;;83.67;13.03;;;;;;;;;;4952010;28;20214;-67
2022/04/23 04:26:49;;;;;;;57.97;8.97;;;;;;;;;;4953455;28;20329;-68
2022/04/23 04:29:15;;;;;;;61.00;9.73;;;;;;;;;;4951265;28;20760;-68
2022/04/23 04:31:47;;;;;;;35.50;5.90;;;;;;;;;;4954182;28;20221;-68
2022/04/23 04:34:13;;;;;;;53.27;8.60;;;;;;;;;;4957901;28;21160;-68
2022/04/23 04:36:39;;;;;;;56.83;9.50;;;;;;;;;;4951045;28;20341;-68
2022/04/23 04:39:05;;;;;;;75.40;11.60;;;;;;;;;;4956714;28;20269;-68
2022/04/23 04:41:32;;;;;;;37.77;6.47;;;;;;;;;;4958959;28;20227;-68
2022/04/23 04:43:58;;;;;;;108.37;16.50;;;;;;;;;;4941989;28;20234;-68
2022/04/23 04:46:24;;;;;;;48.13;7.80;;;;;;;;;;4961341;28;20249;-68
2022/04/23 04:48:52;;;;;;;57.10;9.37;;;;;;;;;;4960903;28;20221;-68
2022/04/23 04:51:18;;;;;;;38.90;6.50;;;;;;;;;;4960664;28;20230;-68
2022/04/23 04:53:43;;;;;;;97.77;14.60;;;;;;;;;;4957619;28;20241;-68
2022/04/23 04:56:09;;;;;;;104.73;17.43;;;;;;;;;;4949284;28;20210;-68
2022/04/23 04:58:36;;;;;;;95.30;14.53;;;;;;;;;;4954066;28;20218;-68
2022/04/23 05:01:02;;;;;;;129.93;19.87;;;;;;;;;;4954004;28;20308;-68
2022/04/23 05:03:28;;;;;;;54.17;8.90;;;;;;;;;;4952048;28;20198;-68
2022/04/23 05:05:54;;;;;;;82.03;12.53;;;;;;;;;;4932103;28;20252;-68
2022/04/23 05:08:20;;;;;;;72.37;11.33;;;;;;;;;;4951924;28;20719;-68
2022/04/23 05:10:46;;;;;;;80.77;12.17;;;;;;;;;;4954643;28;21166;-68
2022/04/23 05:13:12;;;;;;;104.17;16.03;;;;;;;;;;4953301;28;20819;-68
2022/04/23 05:15:39;;;;;;;66.93;10.90;;;;;;;;;;4953728;28;20659;-68
2022/04/23 05:18:05;;;;;;;134.17;20.53;;;;;;;;;;4952636;28;20189;-67
2022/04/23 05:20:31;;;;;;;81.33;12.77;;;;;;;;;;4958384;28;20226;-67
2022/04/23 05:22:56;;;;;;;91.80;14.10;;;;;;;;;;4956231;28;20214;-68
2022/04/23 05:25:22;;;;;;;57.03;9.13;;;;;;;;;;4959226;28;20804;-67
2022/04/23 05:27:49;;;;;;;37.70;6.47;;;;;;;;;;4960387;28;20229;-67
2022/04/23 05:30:14;;;;;;;57.90;9.37;;;;;;;;;;4951888;28;20210;-67
2022/04/23 05:32:40;;;;;;;100.43;15.27;;;;;;;;;;4948172;28;20217;-68
2022/04/23 05:35:07;;;;;;;100.97;16.10;;;;;;;;;;4951041;28;20720;-69
2022/04/23 05:37:32;;;;;;;34.17;6.07;;;;;;;;;;4957104;28;20244;-68
2022/04/23 05:39:58;;;;;;;125.57;20.20;;;;;;;;;;4953098;28;22688;-68
2022/04/23 05:42:24;;;;;;;43.57;7.40;;;;;;;;;;4954298;28;20182;-69
2022/04/23 05:44:50;;;;;;;84.80;13.50;;;;;;;;;;4953451;28;20227;-68
2022/04/23 05:47:16;;;;;;;57.37;9.43;;;;;;;;;;4957730;28;20207;-68
2022/04/23 05:49:42;;;;;;;68.00;10.97;;;;;;;;;;4954001;28;20225;-68
2022/04/23 05:52:08;;;;;;;115.53;17.73;;;;;;;;;;4950800;28;20234;-66
2022/04/23 05:54:34;;;;;;;75.63;12.23;;;;;;;;;;4962702;28;20193;-66
2022/04/23 05:57:00;;;;;;;101.63;16.97;;;;;;;;;;4958976;28;20205;-66
2022/04/23 05:59:29;;;;;;;94.33;14.37;;;;;;;;;;4952430;28;20214;-63
2022/04/23 06:01:55;;;;;;;99.43;15.97;;;;;;;;;;4954476;28;20226;-64
2022/04/23 06:04:22;;;;;;;49.67;8.27;;;;;;;;;;4939033;28;20720;-67
2022/04/23 06:06:48;;;;;;;56.50;9.43;;;;;;;;;;4947928;28;20752;-68
2022/04/23 06:09:14;;;;;;;75.67;12.47;;;;;;;;;;4948804;28;20214;-66
2022/04/23 06:11:40;;;;;;;230.20;35.40;;;;;;;;;;4938124;28;20214;-66
2022/04/23 06:14:06;;;;;;;79.57;13.33;;;;;;;;;;4951621;28;20215;-66
2022/04/23 06:16:32;;;;;;;67.97;11.23;;;;;;;;;;4957312;28;20309;-66
2022/04/23 06:18:58;;;;;;;130.03;20.50;;;;;;;;;;4954069;28;20214;-65
2022/04/23 06:21:24;;;;;;;80.30;13.27;;;;;;;;;;4956777;28;20214;-66
2022/04/23 06:23:50;;;;;;;81.73;13.40;;;;;;;;;;4955190;28;20627;-66
2022/04/23 06:26:16;;;;;;;106.93;17.10;;;;;;;;;;4945413;28;20593;-66
2022/04/23 06:28:42;;;;;;;71.70;11.80;;;;;;;;;;4952864;28;20221;-65
2022/04/23 06:31:08;;;;;;;111.90;18.20;;;;;;;;;;4950447;28;20214;-66
2022/04/23 06:33:34;;;;;;;87.23;14.80;;;;;;;;;;4956768;28;20597;-66
2022/04/23 06:36:00;;;;;;;139.23;23.23;;;;;;;;;;4950240;28;20333;-66
2022/04/23 06:38:26;;;;;;;49.57;8.57;;;;;;;;;;4937323;28;20242;-66
2022/04/23 06:40:51;;;;;;;122.80;19.60;;;;;;;;;;4958737;28;20215;-66
2022/04/23 06:43:17;;;;;;;40.40;7.07;;;;;;;;;;4960381;28;20206;-68
2022/04/23 06:45:43;;;;;;;54.80;9.83;;;;;;;;;;4963591;28;20210;-68
2022/04/23 06:48:09;;;;;;;98.10;17.20;;;;;;;;;;4943494;28;20182;-68
2022/04/23 06:50:36;;;;;;;74.63;12.43;;;;;;;;;;4963015;28;20211;-67
2022/04/23 06:53:03;;;;;;;113.83;20.37;;;;;;;;;;4965060;28;20687;-66
2022/04/23 06:55:29;;;;;;;48.33;8.60;;;;;;;;;;4960945;28;20210;-66
2022/04/23 06:57:55;;;;;;;78.33;13.27;;;;;;;;;;4956962;28;20215;-67
2022/04/23 07:00:22;;;;;;;68.30;11.53;;;;;;;;;;4960175;28;20210;-66
2022/04/23 07:02:49;;;;;;;73.57;12.40;;;;;;;;;;4954958;28;20793;-66
2022/04/23 07:05:15;;;;;;;60.53;10.37;;;;;;;;;;4957052;28;20229;-65
2022/04/23 07:07:41;;;;;;;148.13;23.40;;;;;;;;;;4951004;28;20221;-63
2022/04/23 07:10:07;;;;;;;88.50;14.93;;;;;;;;;;4952379;28;20313;-66
2022/04/23 07:12:33;;;;;;;43.27;7.77;;;;;;;;;;4957965;28;20667;-64
2022/04/23 07:15:00;;;;;;;92.97;16.60;;;;;;;;;;4963185;28;20187;-63
2022/04/23 07:17:26;;;;;;;96.33;15.97;;;;;;;;;;4961295;28;20834;-61
2022/04/23 07:19:55;;;;;;;125.63;20.13;;;;;;;;;;4957233;28;20231;-61
2022/04/23 07:22:22;;;;;;;88.63;15.27;;;;;;;;;;4951851;28;20222;-64
2022/04/23 07:24:49;;;;;;;90.47;15.83;;;;;;;;;;4954501;28;20257;-65
2022/04/23 07:27:15;;;;;;;65.43;11.70;;;;;;;;;;4958817;28;20182;-62
2022/04/23 07:29:41;;;;;;;113.93;19.23;;;;;;;;;;4947713;28;20214;-68
2022/04/23 07:32:07;;;;;;;144.83;24.80;;;;;;;;;;4946490;28;20225;-66
2022/04/23 07:37:30;;;;;;;54.83;10.23;;;;;;;;;;4954236;28;20229;-66
2022/04/23 07:40:00;;;;;;;71.33;13.53;;;;;;;;;;4957202;28;20739;-66
2022/04/23 07:42:27;;;;;;;78.13;13.87;;;;;;;;;;4954554;28;20171;-64
2022/04/23 07:44:53;;;;;;;45.57;8.57;;;;;;;;;;4959248;28;20213;-66
2022/04/23 07:47:19;;;;;;;74.87;13.30;;;;;;;;;;4956201;28;20790;-65
2022/04/23 07:49:45;;;;;;;100.90;17.70;;;;;;;;;;4958493;28;20214;-68
2022/04/23 07:52:11;;;;;;;98.20;17.87;;;;;;;;;;4957534;28;20327;-66
2022/04/23 07:54:38;;;;;;;48.63;9.43;;;;;;;;;;4957009;28;20269;-67
2022/04/23 07:57:06;;;;;;;104.30;20.27;;;;;;;;;;4953185;28;20187;-65
2022/04/23 07:59:32;;;;;;;85.83;15.20;;;;;;;;;;4951707;28;20574;-65
2022/04/23 08:01:58;;;;;;;116.83;21.00;;;;;;;;;;4955181;28;20222;-65
2022/04/23 08:04:24;;;;;;;54.63;11.23;;;;;;;;;;4959216;28;20220;-65
2022/04/23 08:06:50;;;;;;;107.37;20.63;;;;;;;;;;4949112;28;20579;-65
2022/04/23 08:09:16;;;;;;;138.50;24.77;;;;;;;;;;4951997;28;20282;-65
2022/04/23 08:11:42;;;;;;;116.70;21.97;;;;;;;;;;4949427;28;20569;-65
2022/04/23 08:14:08;;;;;;;131.73;24.60;;;;;;;;;;4945935;28;20284;-65
2022/04/23 08:16:34;;;;;;;78.07;15.87;;;;;;;;;;4950757;28;20780;-65
2022/04/23 08:19:00;;;;;;;96.33;18.93;;;;;;;;;;4957022;28;20218;-65
2022/04/23 08:21:26;;;;;;;46.37;9.23;;;;;;;;;;4956659;28;20210;-65
2022/04/23 08:23:51;;;;;;;60.03;11.73;;;;;;;;;;4962307;28;20592;-65
2022/04/23 08:26:18;;;;;;;111.40;21.43;;;;;;;;;;4948341;28;20229;-65
2022/04/23 08:31:29;;;;;;;77.57;14.87;;;;;;;;;;4950323;28;20225;-65
2022/04/23 08:33:57;;;;;;;89.47;16.33;;;;;;;;;;4957161;28;20214;-65
2022/04/23 08:36:23;;;;;;;140.20;25.30;;;;;;;;;;4947680;28;20818;-65
2022/04/23 08:38:51;;;;;;;123.00;22.20;;;;;;;;;;4952529;28;20295;-65
2022/04/23 08:41:17;;;;;;;102.70;18.47;;;;;;;;;;4934425;28;20225;-65
2022/04/23 08:43:43;;;;;;;110.03;19.73;;;;;;;;;;4948744;28;20210;-65
2022/04/23 08:46:09;;;;;;;168.20;30.27;;;;;;;;;;4952612;28;20218;-65
2022/04/23 08:48:37;;;;;;;130.50;25.57;;;;;;;;;;4950265;28;20249;-65
2022/04/23 08:51:05;;;;;;;138.67;27.83;;;;;;;;;;4950785;28;20663;-65
2022/04/23 08:53:32;;;;;;;57.00;12.37;;;;;;;;;;4962659;28;20210;-65
2022/04/23 08:55:59;;;;;;;94.03;21.33;;;;;;;;;;4956423;28;20222;-65
2022/04/23 08:58:25;;;;;;;81.00;17.63;;;;;;;;;;4956013;28;20222;-65
2022/04/23 09:00:51;;;;;;;121.77;25.57;;;;;;;;;;4951418;28;23478;-65
2022/04/23 09:03:17;;;;;;;97.50;24.20;;;;;;;;;;4955728;28;20668;-65
2022/04/23 09:05:43;;;;;;;119.70;27.27;;;;;;;;;;4951503;28;20536;-65
2022/04/23 09:08:09;;;;;;;130.60;33.73;;;;;;;;;;4950316;28;20222;-65
2022/04/23 09:10:44;;;;;;;142.97;34.97;;;;;;;;;;4937931;28;20704;-65
2022/04/23 09:13:10;;;;;;;152.57;40.00;;;;;;;;;;4953274;28;20213;-65
2022/04/23 09:24:08;;;;;;;113.70;26.50;;;;;;;;;;4951521;28;20225;-65
2022/04/23 09:26:33;;;;;;;93.60;22.63;;;;;;;;;;4953845;28;20528;-65
2022/04/23 09:29:00;;;;;;;81.50;22.73;;;;;;;;;;4938895;28;20636;-65
2022/04/23 09:31:26;;;;;;;95.37;22.63;;;;;;;;;;4959137;28;20275;-65
2022/04/23 09:33:54;;;;;;;53.67;13.70;;;;;;;;;;4956651;28;20210;-65
2022/04/23 09:36:20;;;;;;;104.70;31.23;;;;;;;;;;4951869;28;20209;-65
2022/04/23 09:39:00;;;;;;;112.30;38.60;;;;;;;;;;4956198;28;20767;-65
2022/04/23 09:41:32;;;;;;;110.33;37.77;;;;;;;;;;4953284;28;20228;-65
2022/04/23 09:44:09;;;;;;;113.33;40.23;;;;;;;;;;4950409;28;20218;-65
2022/04/23 09:46:48;;;;;;;58.75;21.65;;;;;;;;;;4952941;28;20249;-65
2022/04/23 09:49:21;;;;;;;107.00;51.83;;;;;;;;;;4957760;28;20222;-65
2022/04/23 09:52:05;;;;;;;115.90;46.77;;;;;;;;;;4951546;28;20225;-65
2022/04/23 09:54:32;;;;;;;111.35;41.58;;;;;;;;;;4950024;28;20635;-65
2022/04/23 09:56:58;;;;;;;137.40;52.75;;;;;;;;;;4955258;28;20191;-65
2022/04/23 09:59:24;;;;;;;48.70;22.20;;;;;;;;;;4955206;28;20242;-65
2022/04/23 10:01:50;;;;;;;125.20;41.28;;;;;;;;;;4948137;28;20248;-65
2022/04/23 10:04:22;;;;;;;108.30;36.70;;;;;;;;;;4948793;28;20245;-65
2022/04/23 10:06:50;;;;;;;80.13;35.93;;;;;;;;;;4946636;28;20215;-65
2022/04/23 10:09:18;;;;;;;161.53;91.17;;;;;;;;;;4955972;28;20212;-65
2022/04/23 10:11:44;;;;;;;127.13;86.93;;;;;;;;;;4949912;28;20237;-65
2022/04/23 10:14:13;;;;;;;182.57;109.70;;;;;;;;;;4958589;28;20210;-68
2022/04/23 10:16:39;;;;;;;138.98;98.55;;;;;;;;;;4958366;28;20584;-67
2022/04/23 10:19:05;;;;;;;245.38;143.35;;;;;;;;;;4954305;28;20229;-67
2022/04/23 10:21:35;;;;;;;317.87;159.70;;;;;;;;;;4961596;28;20265;-67
2022/04/23 10:24:20;;;;;;;317.80;159.63;;;;;;;;;;4959706;28;20272;-66
2022/04/23 10:26:54;;;;;;;116.93;27.95;;;;;;;;;;4948006;28;20213;-67
2022/04/23 10:29:21;;;;;;;93.78;22.00;;;;;;;;;;4955205;28;20218;-67
2022/04/23 10:32:06;;;;;;;54.95;13.25;;;;;;;;;;4964991;28;20222;-67
2022/04/23 10:34:33;;;;;;;106.07;23.85;;;;;;;;;;4934369;28;20237;-67
2022/04/23 10:37:14;;;;;;;94.93;22.80;;;;;;;;;;4951352;28;20675;-66
2022/04/23 10:39:40;;;;;;;165.00;38.40;;;;;;;;;;4956084;28;20186;-67
2022/04/23 10:42:06;;;;;;;150.75;38.13;;;;;;;;;;4956231;28;20252;-66
2022/04/23 10:44:33;;;;;;;66.45;15.65;;;;;;;;;;4941503;28;20273;-66
2022/04/23 10:46:59;;;;;;;110.95;26.65;;;;;;;;;;4957446;28;20222;-67
2022/04/23 10:49:25;;;;;;;88.63;20.55;;;;;;;;;;4957374;28;20587;-66
2022/04/23 10:51:53;;;;;;;69.50;16.25;;;;;;;;;;4941338;28;20302;-66
2022/04/23 10:54:22;;;;;;;59.42;13.70;;;;;;;;;;4959543;28;20194;-66
2022/04/23 10:56:48;;;;;;;87.57;19.52;;;;;;;;;;4953608;28;20221;-68
2022/04/23 10:59:38;;;;;;;105.20;23.70;;;;;;;;;;4961154;28;20217;-66
2022/04/23 11:02:06;;;;;;;138.88;31.13;;;;;;;;;;4953159;28;20289;-66
2022/04/23 11:04:33;;;;;;;59.55;14.18;;;;;;;;;;4954808;28;20230;-67
2022/04/23 11:12:18;;;;;;;58.25;13.63;;;;;;;;;;4964026;28;20522;-67
2022/04/23 11:14:45;;;;;;;66.07;15.38;;;;;;;;;;4964539;28;20217;-67
2022/04/23 11:17:14;;;;;;;107.15;24.00;;;;;;;;;;4961093;28;20592;-67
2022/04/23 11:19:40;;;;;;;47.72;11.73;;;;;;;;;;4965496;28;20852;-67
2022/04/23 11:22:09;;;;;;;109.63;28.15;;;;;;;;;;4962350;28;20222;-67
2022/04/23 11:24:35;;;;;;;47.67;11.90;;;;;;;;;;4965218;28;20210;-67
2022/04/23 11:27:01;;;;;;;70.70;16.45;;;;;;;;;;4964928;28;20771;-66
2022/04/23 11:29:27;;;;;;;48.38;11.90;;;;;;;;;;4968175;28;20214;-67
2022/04/23 11:31:56;;;;;;;70.50;17.02;;;;;;;;;;4962530;28;20232;-67
2022/04/23 11:34:22;;;;;;;41.80;10.48;;;;;;;;;;4967516;28;20253;-67
2022/04/23 11:36:48;;;;;;;46.47;11.13;;;;;;;;;;4963990;28;20233;-67
2022/04/23 11:39:14;;;;;;;45.38;11.57;;;;;;;;;;4947500;28;20867;-67
2022/04/23 11:41:41;;;;;;;45.63;11.35;;;;;;;;;;4964033;28;20226;-67
2022/04/23 11:44:12;;;;;;;76.10;19.13;;;;;;;;;;4963564;28;20312;-67
2022/04/23 11:46:48;;;;;;;39.25;9.70;;;;;;;;;;4966177;28;20249;-67
2022/04/23 11:49:29;;;;;;;39.10;10.20;;;;;;;;;;4965873;28;20210;-66
2022/04/23 11:52:01;;;;;;;106.32;26.27;;;;;;;;;;4954230;28;20225;-67
2022/04/23 11:54:33;;;;;;;49.70;12.15;;;;;;;;;;4964660;28;20182;-67
2022/04/23 11:56:59;;;;;;;94.78;24.90;;;;;;;;;;4961147;28;20190;-67
2022/04/23 11:59:25;;;;;;;40.47;10.60;;;;;;;;;;4967321;28;20222;-67
2022/04/23 12:01:51;;;;;;;67.72;16.55;;;;;;;;;;4963677;28;20226;-67
2022/04/23 12:04:16;;;;;;;55.88;13.98;;;;;;;;;;4949276;28;20344;-67
2022/04/23 12:06:46;;;;;;;57.40;14.15;;;;;;;;;;4945103;28;20178;-67
2022/04/23 12:09:13;;;;;;;85.20;21.33;;;;;;;;;;4961365;28;20182;-67
2022/04/23 12:11:39;;;;;;;38.88;10.45;;;;;;;;;;4963440;28;20944;-67
2022/04/23 12:14:05;;;;;;;173.90;54.33;;;;;;;;;;4963870;28;20293;-67
2022/04/23 12:16:38;;;;;;;68.20;22.00;;;;;;;;;;4960494;28;20214;-67
2022/04/23 12:19:04;;;;;;;80.97;23.90;;;;;;;;;;4965153;28;20218;-67
2022/04/23 12:21:30;;;;;;;32.58;11.15;;;;;;;;;;4961764;28;20731;-67
2022/04/23 12:23:56;;;;;;;56.53;17.85;;;;;;;;;;4964668;28;20708;-67
2022/04/23 12:26:23;;;;;;;88.65;25.20;;;;;;;;;;4959407;28;20210;-67
2022/04/23 12:42:31;;;;;;;40.00;13.93;;;;;;;;;;4958459;28;20193;-67
2022/04/23 12:44:56;;;;;;;70.43;22.35;;;;;;;;;;4958125;28;20213;-67
2022/04/23 12:47:30;;;;;;;68.53;40.78;;;;;;;;;;4964692;28;20700;-67
2022/04/23 12:49:58;;;;;;;68.32;43.40;;;;;;;;;;4965563;28;20210;-67
2022/04/23 12:52:32;;;;;;;53.28;43.17;;;;;;;;;;4960505;28;20218;-67
2022/04/23 12:55:17;;;;;;;79.00;58.65;;;;;;;;;;4966172;28;20221;-67
2022/04/23 12:57:47;;;;;;;145.10;121.50;;;;;;;;;;4962734;28;20270;-67
2022/04/23 13:00:16;;;;;;;150.13;122.13;;;;;;;;;;4961251;28;21830;-67
2022/04/23 13:02:43;;;;;;;148.05;123.68;;;;;;;;;;4961528;28;20206;-67
2022/04/23 13:05:10;;;;;;;236.98;156.35;;;;;;;;;;4966772;28;20799;-66
2022/04/23 13:10:20;;;;;;;320.80;184.40;;;;;;;;;;4963146;28;20220;-66
2022/04/23 13:12:46;;;;;;;334.15;191.40;;;;;;;;;;4960292;28;20741;-67
2022/04/23 13:15:12;;;;;;;351.65;197.95;;;;;;;;;;4960480;28;20670;-67
2022/04/23 13:17:39;;;;;;;336.35;185.38;;;;;;;;;;4966339;28;20210;-67
2022/04/23 13:20:07;;;;;;;350.25;202.73;;;;;;;;;;4963412;28;20274;-67
2022/04/23 13:22:32;;;;;;;229.68;158.30;;;;;;;;;;4960858;28;20249;-67
2022/04/23 13:24:58;;;;;;;330.17;201.98;;;;;;;;;;4963880;28;20724;-67
2022/04/23 13:27:25;;;;;;;223.80;157.02;;;;;;;;;;4952328;28;20186;-66
2022/04/23 13:29:52;;;;;;;226.32;159.25;;;;;;;;;;4961463;28;20288;-68
2022/04/23 13:32:18;;;;;;;314.45;201.90;;;;;;;;;;4955806;28;20218;-66
2022/04/23 13:34:44;;;;;;;245.30;177.70;;;;;;;;;;4956791;28;20210;-69
2022/04/23 13:37:10;;;;;;;289.10;194.98;;;;;;;;;;4952290;28;20221;-67
2022/04/23 13:39:36;;;;;;;273.05;182.93;;;;;;;;;;4947056;28;20200;-67
2022/04/23 13:42:02;;;;;;;369.88;238.80;;;;;;;;;;4949465;28;20608;-66
2022/04/23 13:44:29;;;;;;;288.35;199.15;;;;;;;;;;4960727;28;20467;-63
2022/04/23 13:46:55;;;;;;;284.83;187.05;;;;;;;;;;4956369;28;20225;-65
2022/04/23 13:49:21;;;;;;;312.77;198.90;;;;;;;;;;4958488;28;20365;-64
2022/04/23 13:51:47;;;;;;;397.02;232.63;;;;;;;;;;4955370;28;20223;-65
2022/04/23 13:54:13;;;;;;;359.23;222.95;;;;;;;;;;4961851;28;20292;-65
2022/04/23 13:56:39;;;;;;;335.25;208.00;;;;;;;;;;4964510;28;20224;-64
2022/04/23 13:59:05;;;;;;;387.77;237.82;;;;;;;;;;4958838;28;20719;-64
2022/04/23 14:01:31;;;;;;;34.10;9.55;;;;;;;;;;4946202;28;20218;-64
2022/04/23 14:12:11;;;;;;;88.55;28.30;;;;;;;;;;4963426;28;20763;-65
2022/04/23 14:14:37;;;;;;;51.13;17.90;;;;;;;;;;4961988;28;20314;-66
2022/04/23 14:17:03;;;;;;;90.82;29.45;;;;;;;;;;4963511;28;20305;-66
2022/04/23 14:19:29;;;;;;;68.47;25.63;;;;;;;;;;4959332;28;20246;-66
2022/04/23 14:21:55;;;;;;;81.43;31.35;;;;;;;;;;4957612;28;20230;-66
2022/04/23 14:24:21;;;;;;;54.60;23.15;;;;;;;;;;4961301;28;20326;-66
2022/04/23 14:26:48;;;;;;;58.80;23.35;;;;;;;;;;4959467;28;21872;-65
2022/04/23 14:29:14;;;;;;;97.75;43.08;;;;;;;;;;4956088;28;20710;-66
2022/04/23 14:31:40;;;;;;;71.50;33.95;;;;;;;;;;4957192;28;20266;-66
2022/04/23 14:34:06;;;;;;;107.47;36.13;;;;;;;;;;4959268;28;20358;-66
2022/04/23 14:36:33;;;;;;;62.60;28.15;;;;;;;;;;4959479;28;20187;-66
2022/04/23 14:39:00;;;;;;;79.82;29.20;;;;;;;;;;4960592;28;20183;-66
2022/04/23 14:41:26;;;;;;;54.05;21.15;;;;;;;;;;4959711;28;20715;-66
2022/04/23 14:43:52;;;;;;;38.55;20.27;;;;;;;;;;4962728;28;20218;-65
2022/04/23 14:46:18;;;;;;;120.38;36.85;;;;;;;;;;4956937;28;20217;-64
2022/04/23 14:48:45;;;;;;;99.28;34.95;;;;;;;;;;4955827;28;20656;-64
2022/04/23 14:53:55;;;;;;;122.45;41.60;;;;;;;;;;4955501;28;20217;-64
2022/04/23 14:56:21;;;;;;;92.95;29.50;;;;;;;;;;4957102;28;20222;-65
2022/04/23 14:58:48;;;;;;;77.05;34.33;;;;;;;;;;4957956;28;20224;-63